Time;durP1;ratioP1;P1;durP2;ratioP2;P2;SDS_P1;SDS_P2;PMS_P1;PMS_P2;Temp;Humidity;BMP_temperature;BMP_pressure;BME280_temperature;BME280_humidity;BME280_pressure;Samples;Min_cycle;Max_cycle;Signal;HPM_P1;HPM_P2
2024/03/17 00:00:23;;;;;;;9.93;5.90;;;;;;;;;;5027837;28;20426;-49
2024/03/17 00:02:49;;;;;;;9.70;5.70;;;;;;;;;;5028959;28;20030;-50
2024/03/17 00:05:15;;;;;;;9.70;5.70;;;;;;;;;;5030107;28;20053;-51
2024/03/17 00:07:41;;;;;;;10.60;6.20;;;;;;;;;;5029759;28;20025;-49
2024/03/17 00:10:08;;;;;;;10.00;5.90;;;;;;;;;;5030389;28;20037;-52
2024/03/17 00:12:34;;;;;;;11.43;8.43;;;;;;;;;;5029703;28;20447;-48
2024/03/17 00:15:00;;;;;;;10.20;6.00;;;;;;;;;;5030548;28;20033;-47
2024/03/17 00:17:26;;;;;;;10.05;5.95;;;;;;;;;;5030244;28;20038;-51
2024/03/17 00:19:52;;;;;;;9.98;5.90;;;;;;;;;;5030644;28;20033;-49
2024/03/17 00:22:18;;;;;;;9.68;5.70;;;;;;;;;;5029845;28;20029;-48
2024/03/17 00:24:45;;;;;;;9.82;5.80;;;;;;;;;;5030109;28;20036;-48
2024/03/17 00:27:11;;;;;;;9.55;5.65;;;;;;;;;;5028887;28;20021;-49
2024/03/17 00:29:38;;;;;;;9.85;5.82;;;;;;;;;;5030185;28;20074;-50
2024/03/17 00:32:04;;;;;;;10.30;6.05;;;;;;;;;;5029794;28;20503;-51
2024/03/17 00:34:30;;;;;;;10.10;5.95;;;;;;;;;;5029997;28;20022;-49
2024/03/17 00:36:56;;;;;;;9.90;5.80;;;;;;;;;;5030439;28;20261;-50
2024/03/17 00:39:22;;;;;;;10.00;5.88;;;;;;;;;;5030203;28;20049;-48
2024/03/17 00:41:48;;;;;;;9.65;5.70;;;;;;;;;;5028594;28;20036;-50
2024/03/17 00:44:15;;;;;;;9.80;5.80;;;;;;;;;;5029696;28;20029;-51
2024/03/17 00:46:42;;;;;;;10.10;6.00;;;;;;;;;;5030022;28;20502;-50
2024/03/17 00:49:08;;;;;;;9.70;5.70;;;;;;;;;;5031054;28;20118;-52
2024/03/17 00:51:34;;;;;;;10.15;6.00;;;;;;;;;;5029795;28;20025;-51
2024/03/17 00:54:00;;;;;;;9.80;5.80;;;;;;;;;;5029534;28;20037;-49
2024/03/17 00:56:27;;;;;;;10.05;5.90;;;;;;;;;;5046718;28;20053;-50
2024/03/17 00:58:53;;;;;;;10.27;6.30;;;;;;;;;;5053695;28;20020;-52
2024/03/17 01:01:19;;;;;;;10.05;5.90;;;;;;;;;;5053444;28;20490;-54
2024/03/17 01:03:46;;;;;;;10.10;5.93;;;;;;;;;;5053449;28;20029;-49
2024/03/17 01:06:12;;;;;;;9.90;5.90;;;;;;;;;;5053752;28;20107;-50
2024/03/17 01:08:38;;;;;;;10.10;5.95;;;;;;;;;;5053546;28;20033;-52
2024/03/17 01:11:08;;;;;;;9.95;5.90;;;;;;;;;;5035861;28;20426;-48
2024/03/17 01:13:35;;;;;;;9.50;5.60;;;;;;;;;;5053095;28;20094;-48
2024/03/17 01:16:01;;;;;;;9.80;5.80;;;;;;;;;;5053665;28;20648;-48
2024/03/17 01:18:27;;;;;;;9.88;5.80;;;;;;;;;;5053255;28;20031;-49
2024/03/17 01:20:53;;;;;;;9.55;5.60;;;;;;;;;;5053413;28;20017;-49
2024/03/17 01:23:19;;;;;;;9.15;5.45;;;;;;;;;;5052318;28;20028;-48
2024/03/17 01:25:45;;;;;;;9.85;5.80;;;;;;;;;;5053030;28;20032;-48
2024/03/17 01:28:11;;;;;;;9.85;5.80;;;;;;;;;;5053097;28;20043;-55
2024/03/17 01:30:39;;;;;;;10.00;5.90;;;;;;;;;;5052876;28;20029;-49
2024/03/17 01:33:05;;;;;;;9.50;5.60;;;;;;;;;;5052523;28;20021;-51
2024/03/17 01:35:31;;;;;;;9.70;5.70;;;;;;;;;;5052967;28;20100;-50
2024/03/17 01:37:57;;;;;;;9.38;5.60;;;;;;;;;;5052746;28;20032;-52
2024/03/17 01:40:23;;;;;;;10.30;6.75;;;;;;;;;;5052498;28;20025;-51
2024/03/17 01:42:49;;;;;;;9.93;5.88;;;;;;;;;;5051689;28;20055;-49
2024/03/17 01:45:34;;;;;;;9.57;5.60;;;;;;;;;;5052411;28;20029;-52
2024/03/17 01:48:02;;;;;;;9.50;5.60;;;;;;;;;;5052210;28;20103;-50
2024/03/17 01:50:30;;;;;;;9.93;6.00;;;;;;;;;;5052614;28;20139;-51
2024/03/17 01:52:59;;;;;;;9.27;5.50;;;;;;;;;;5051719;28;20025;-49
2024/03/17 01:55:25;;;;;;;9.50;5.60;;;;;;;;;;5052245;28;20025;-50
2024/03/17 01:57:53;;;;;;;9.70;5.70;;;;;;;;;;5052102;28;20028;-53
2024/03/17 02:00:19;;;;;;;9.75;5.75;;;;;;;;;;5052184;28;20033;-49
2024/03/17 02:02:45;;;;;;;9.50;5.60;;;;;;;;;;5033799;28;20025;-49
2024/03/17 02:05:11;;;;;;;9.80;5.72;;;;;;;;;;5052151;28;20028;-52
2024/03/17 02:07:37;;;;;;;10.20;6.00;;;;;;;;;;5051824;28;20055;-49
2024/03/17 02:10:03;;;;;;;9.38;5.50;;;;;;;;;;5051936;28;20475;-49
2024/03/17 02:12:33;;;;;;;9.10;5.40;;;;;;;;;;5051157;28;20102;-51
2024/03/17 02:14:59;;;;;;;9.20;5.45;;;;;;;;;;5051925;28;20029;-50
2024/03/17 02:17:25;;;;;;;9.60;5.70;;;;;;;;;;5052015;28;20029;-52
2024/03/17 02:19:54;;;;;;;9.30;5.50;;;;;;;;;;5052070;28;20112;-52
2024/03/17 02:22:20;;;;;;;9.50;5.60;;;;;;;;;;5051523;28;20105;-50
2024/03/17 02:24:46;;;;;;;9.45;5.60;;;;;;;;;;5052037;28;20111;-51
2024/03/17 02:27:13;;;;;;;9.25;5.50;;;;;;;;;;5051623;28;20024;-51
2024/03/17 02:29:39;;;;;;;9.40;5.55;;;;;;;;;;5051828;28;20053;-52
2024/03/17 02:32:06;;;;;;;9.27;5.43;;;;;;;;;;5051216;28;20025;-49
2024/03/17 02:34:33;;;;;;;9.40;5.60;;;;;;;;;;5051308;28;20036;-50
2024/03/17 02:36:59;;;;;;;9.18;5.38;;;;;;;;;;5033622;28;20035;-51
2024/03/17 02:41:57;;;;;;;9.30;5.50;;;;;;;;;;5051117;28;20491;-50
2024/03/17 02:44:23;;;;;;;9.60;5.68;;;;;;;;;;5032764;28;20035;-51
2024/03/17 02:46:49;;;;;;;9.90;5.80;;;;;;;;;;5051208;28;20039;-53
2024/03/17 02:49:17;;;;;;;9.88;5.80;;;;;;;;;;5051124;28;20033;-48
2024/03/17 02:51:43;;;;;;;;;;;;;;;;;;5051481;28;20017;-51
2024/03/17 02:54:09;;;;;;;9.90;5.80;;;;;;;;;;5050928;28;19909;-48
2024/03/17 02:56:35;;;;;;;9.90;5.85;;;;;;;;;;5051368;28;20099;-49
2024/03/17 02:59:01;;;;;;;9.75;5.75;;;;;;;;;;5051210;28;20029;-53
2024/03/17 03:01:27;;;;;;;10.07;5.90;;;;;;;;;;5049779;28;20544;-52
2024/03/17 03:03:53;;;;;;;9.80;5.80;;;;;;;;;;5050755;28;20021;-49
2024/03/17 03:06:19;;;;;;;9.82;5.78;;;;;;;;;;5051039;28;20471;-48
2024/03/17 03:08:48;;;;;;;10.07;5.90;;;;;;;;;;5050490;28;20029;-50
2024/03/17 03:11:15;;;;;;;9.95;5.90;;;;;;;;;;5050894;28;20021;-47
2024/03/17 03:13:42;;;;;;;10.00;5.90;;;;;;;;;;5050264;28;20091;-49
2024/03/17 03:16:09;;;;;;;10.02;5.90;;;;;;;;;;5050841;28;20027;-51
2024/03/17 03:18:36;;;;;;;9.90;5.80;;;;;;;;;;5050251;28;20055;-55
2024/03/17 03:21:01;;;;;;;9.65;5.70;;;;;;;;;;5050621;28;20030;-50
2024/03/17 03:23:27;;;;;;;9.45;5.63;;;;;;;;;;5050089;28;20025;-48
2024/03/17 03:25:57;;;;;;;9.88;5.80;;;;;;;;;;5050746;28;20452;-52
2024/03/17 03:28:23;;;;;;;10.70;7.22;;;;;;;;;;5050641;28;20737;-49
2024/03/17 03:30:49;;;;;;;10.23;6.07;;;;;;;;;;5032963;28;20075;-54
2024/03/17 03:33:15;;;;;;;10.50;6.20;;;;;;;;;;5050172;28;20037;-49
2024/03/17 03:35:42;;;;;;;10.45;6.18;;;;;;;;;;5050808;28;20021;-48
2024/03/17 03:38:08;;;;;;;9.80;5.80;;;;;;;;;;5050685;28;20017;-50
2024/03/17 03:40:34;;;;;;;9.60;5.70;;;;;;;;;;5050459;28;20390;-48
2024/03/17 03:43:00;;;;;;;9.88;5.80;;;;;;;;;;5049687;28;20028;-48
2024/03/17 03:45:26;;;;;;;10.15;5.90;;;;;;;;;;5050338;28;20025;-51
2024/03/17 03:47:52;;;;;;;10.18;6.00;;;;;;;;;;5032513;28;20025;-53
2024/03/17 03:50:23;;;;;;;10.40;6.10;;;;;;;;;;5032870;28;20415;-48
2024/03/17 03:52:49;;;;;;;10.50;6.20;;;;;;;;;;5049850;28;20028;-49
2024/03/17 03:55:16;;;;;;;10.38;6.10;;;;;;;;;;5050313;28;20506;-51
2024/03/17 03:57:46;;;;;;;10.43;6.13;;;;;;;;;;5050015;28;20085;-51
2024/03/17 04:00:12;;;;;;;11.30;6.60;;;;;;;;;;5032013;28;20024;-48
2024/03/17 04:02:48;;;;;;;11.40;6.70;;;;;;;;;;5049416;28;20132;-48
2024/03/17 04:05:14;;;;;;;11.15;6.53;;;;;;;;;;5050083;28;20061;-50
2024/03/17 04:07:42;;;;;;;13.20;10.80;;;;;;;;;;5049843;28;20418;-50
2024/03/17 04:10:09;;;;;;;11.60;6.75;;;;;;;;;;5049999;28;20457;-51
2024/03/17 04:12:35;;;;;;;11.55;6.75;;;;;;;;;;5049223;28;20054;-53
2024/03/17 04:15:01;;;;;;;11.05;6.47;;;;;;;;;;5050079;28;20028;-53
2024/03/17 04:17:27;;;;;;;11.52;6.70;;;;;;;;;;5049874;28;20021;-51
2024/03/17 04:19:54;;;;;;;11.48;6.70;;;;;;;;;;5049982;28;20124;-47
2024/03/17 04:22:21;;;;;;;11.10;6.50;;;;;;;;;;5049294;28;20039;-53
2024/03/17 04:24:53;;;;;;;11.57;6.70;;;;;;;;;;5049761;28;20021;-49
2024/03/17 04:27:19;;;;;;;11.10;6.50;;;;;;;;;;5049802;28;20052;-47
2024/03/17 04:29:47;;;;;;;11.25;6.60;;;;;;;;;;5049848;28;20021;-49
2024/03/17 04:32:14;;;;;;;11.50;6.70;;;;;;;;;;5052096;28;20386;-50
2024/03/17 04:34:40;;;;;;;11.55;6.72;;;;;;;;;;5053521;28;20749;-50
2024/03/17 04:37:06;;;;;;;11.60;6.80;;;;;;;;;;5054018;28;20032;-52
2024/03/17 04:39:32;;;;;;;11.70;6.82;;;;;;;;;;5054593;28;20029;-48
2024/03/17 04:41:59;;;;;;;11.50;6.70;;;;;;;;;;5053501;28;20029;-49
2024/03/17 04:44:25;;;;;;;11.23;6.60;;;;;;;;;;5053571;28;20017;-53
2024/03/17 04:46:51;;;;;;;11.40;6.70;;;;;;;;;;5053735;28;20035;-49
2024/03/17 04:49:17;;;;;;;11.30;6.60;;;;;;;;;;5053694;28;20549;-48
2024/03/17 04:51:43;;;;;;;11.18;6.55;;;;;;;;;;5053404;28;20052;-49
2024/03/17 04:54:09;;;;;;;11.55;6.70;;;;;;;;;;5053275;28;20029;-49
2024/03/17 04:56:35;;;;;;;11.70;6.80;;;;;;;;;;5053707;28;20406;-51
2024/03/17 04:59:01;;;;;;;11.18;6.60;;;;;;;;;;5053500;28;20052;-52
2024/03/17 05:01:27;;;;;;;11.52;6.70;;;;;;;;;;5053499;28;20064;-49
2024/03/17 05:03:53;;;;;;;11.45;6.65;;;;;;;;;;5053068;28;20051;-49
2024/03/17 05:06:19;;;;;;;11.18;6.53;;;;;;;;;;5053360;28;20036;-50
2024/03/17 05:08:45;;;;;;;11.38;6.65;;;;;;;;;;5053415;28;20066;-52
2024/03/17 05:11:14;;;;;;;11.43;6.70;;;;;;;;;;5053261;28;20058;-48
2024/03/17 05:13:40;;;;;;;11.65;6.80;;;;;;;;;;5052748;28;20605;-50
2024/03/17 05:16:06;;;;;;;11.70;6.80;;;;;;;;;;5053231;28;20664;-49
2024/03/17 05:18:35;;;;;;;11.50;6.70;;;;;;;;;;5035403;28;20509;-49
2024/03/17 05:21:03;;;;;;;11.40;6.63;;;;;;;;;;5053087;28;20506;-48
2024/03/17 05:23:29;;;;;;;11.82;6.90;;;;;;;;;;5052349;28;20041;-50
2024/03/17 05:25:56;;;;;;;11.48;6.70;;;;;;;;;;5053161;28;20040;-50
2024/03/17 05:28:23;;;;;;;11.80;6.90;;;;;;;;;;5053143;28;20037;-50
2024/03/17 05:30:50;;;;;;;11.48;6.70;;;;;;;;;;5035034;28;20561;-48
2024/03/17 05:33:17;;;;;;;11.55;6.72;;;;;;;;;;5052305;28;20040;-49
2024/03/17 05:35:49;;;;;;;11.50;6.72;;;;;;;;;;5034951;28;20040;-51
2024/03/17 05:38:15;;;;;;;11.77;6.88;;;;;;;;;;5052838;28;20029;-46
2024/03/17 05:40:41;;;;;;;11.65;6.80;;;;;;;;;;5052819;28;20642;-48
2024/03/17 05:43:07;;;;;;;11.80;6.90;;;;;;;;;;5051747;28;20116;-50
2024/03/17 05:45:33;;;;;;;11.85;6.93;;;;;;;;;;5052740;28;20095;-52
2024/03/17 05:47:59;;;;;;;11.73;6.82;;;;;;;;;;5052493;28;20045;-48
2024/03/17 05:50:27;;;;;;;11.43;6.70;;;;;;;;;;5052768;28;20021;-47
2024/03/17 05:52:53;;;;;;;11.38;6.65;;;;;;;;;;5052010;28;20024;-48
2024/03/17 05:55:19;;;;;;;11.80;6.90;;;;;;;;;;5052908;28;20033;-51
2024/03/17 05:57:45;;;;;;;11.25;6.60;;;;;;;;;;5052676;28;20052;-53
2024/03/17 06:00:15;;;;;;;10.88;6.38;;;;;;;;;;5052556;28;20495;-50
2024/03/17 06:02:41;;;;;;;11.50;6.70;;;;;;;;;;5038340;28;20491;-50
2024/03/17 06:05:10;;;;;;;11.30;6.60;;;;;;;;;;5032564;28;20121;-50
2024/03/17 06:07:36;;;;;;;11.00;6.40;;;;;;;;;;5031313;28;20029;-48
2024/03/17 06:10:01;;;;;;;11.10;6.50;;;;;;;;;;5032723;28;20071;-49
2024/03/17 06:12:27;;;;;;;11.50;6.70;;;;;;;;;;5031876;28;20029;-50
2024/03/17 06:14:53;;;;;;;11.73;7.78;;;;;;;;;;5032357;28;20455;-52
2024/03/17 06:17:19;;;;;;;11.10;6.50;;;;;;;;;;5032273;28;20025;-50
2024/03/17 06:19:45;;;;;;;11.23;6.60;;;;;;;;;;5031894;28;20044;-49
2024/03/17 06:22:11;;;;;;;10.88;6.35;;;;;;;;;;5032442;28;20131;-50
2024/03/17 06:24:37;;;;;;;11.52;8.68;;;;;;;;;;5031700;28;20032;-52
2024/03/17 06:27:04;;;;;;;10.95;6.40;;;;;;;;;;5034155;28;20040;-53
2024/03/17 06:29:33;;;;;;;10.75;6.30;;;;;;;;;;5038688;28;20021;-53
2024/03/17 06:31:59;;;;;;;10.73;6.32;;;;;;;;;;5037937;28;20029;-51
2024/03/17 06:34:25;;;;;;;10.70;6.30;;;;;;;;;;5054404;28;20021;-52
2024/03/17 06:36:51;;;;;;;11.05;6.50;;;;;;;;;;5057399;28;20032;-52
2024/03/17 06:39:19;;;;;;;11.32;6.60;;;;;;;;;;5052829;28;20100;-53
2024/03/17 06:41:45;;;;;;;11.27;6.57;;;;;;;;;;5045122;28;20041;-49
2024/03/17 06:44:11;;;;;;;11.75;7.30;;;;;;;;;;5031390;28;20037;-51
2024/03/17 06:46:37;;;;;;;11.93;7.00;;;;;;;;;;5031604;28;20028;-51
2024/03/17 06:49:03;;;;;;;11.55;6.78;;;;;;;;;;5055345;22;20201;-55
2024/03/17 06:51:29;;;;;;;12.40;7.20;;;;;;;;;;5031550;28;20057;-54
2024/03/17 06:53:55;;;;;;;12.25;7.10;;;;;;;;;;5048320;28;20140;-56
2024/03/17 06:56:21;;;;;;;12.45;7.28;;;;;;;;;;5049634;28;20539;-54
2024/03/17 06:58:47;;;;;;;12.32;7.25;;;;;;;;;;5049375;28;20021;-52
2024/03/17 07:01:13;;;;;;;12.45;7.22;;;;;;;;;;5031533;28;20028;-52
2024/03/17 07:03:39;;;;;;;13.10;7.60;;;;;;;;;;5031091;28;20083;-52
2024/03/17 07:06:07;;;;;;;12.43;7.22;;;;;;;;;;5049352;28;20474;-56
2024/03/17 07:08:33;;;;;;;12.68;7.35;;;;;;;;;;5031226;28;20029;-53
2024/03/17 07:11:01;;;;;;;12.70;7.40;;;;;;;;;;5049376;28;20031;-50
2024/03/17 07:13:28;;;;;;;13.05;8.10;;;;;;;;;;5030936;28;20138;-54
2024/03/17 07:15:54;;;;;;;12.90;7.60;;;;;;;;;;5049402;28;20108;-55
2024/03/17 07:18:20;;;;;;;13.10;7.60;;;;;;;;;;5049497;28;20112;-56
2024/03/17 07:20:47;;;;;;;12.30;7.20;;;;;;;;;;5031803;28;20052;-53
2024/03/17 07:23:14;;;;;;;13.00;7.60;;;;;;;;;;5049083;28;20068;-52
2024/03/17 07:25:40;;;;;;;13.40;8.10;;;;;;;;;;5049483;28;20075;-53
2024/03/17 07:28:06;;;;;;;12.70;7.38;;;;;;;;;;5031412;28;20091;-52
2024/03/17 07:30:32;;;;;;;13.00;7.57;;;;;;;;;;5049338;28;20021;-55
2024/03/17 07:32:58;;;;;;;13.35;8.00;;;;;;;;;;5048439;28;20447;-52
2024/03/17 07:35:24;;;;;;;13.07;7.60;;;;;;;;;;5049145;28;20033;-55
2024/03/17 07:37:50;;;;;;;12.75;7.40;;;;;;;;;;5031044;28;20017;-52
2024/03/17 07:40:16;;;;;;;13.43;8.20;;;;;;;;;;5048804;28;20044;-55
2024/03/17 07:42:42;;;;;;;13.50;8.38;;;;;;;;;;5047826;28;20063;-56
2024/03/17 07:45:09;;;;;;;13.15;7.72;;;;;;;;;;5030762;28;20092;-53
2024/03/17 07:47:37;;;;;;;13.38;8.02;;;;;;;;;;5030889;28;20032;-53
2024/03/17 07:50:05;;;;;;;13.23;7.90;;;;;;;;;;5049487;28;20090;-55
2024/03/17 07:52:31;;;;;;;13.15;7.70;;;;;;;;;;5047932;28;20114;-53
2024/03/17 07:54:57;;;;;;;12.70;7.35;;;;;;;;;;5048652;28;20017;-55
2024/03/17 07:57:23;;;;;;;13.10;7.70;;;;;;;;;;5048612;28;20732;-51
2024/03/17 07:59:52;;;;;;;13.20;7.80;;;;;;;;;;5030489;28;20029;-51
2024/03/17 08:02:18;;;;;;;13.05;7.63;;;;;;;;;;5048086;28;20025;-55
2024/03/17 08:04:44;;;;;;;13.95;10.10;;;;;;;;;;5048108;28;20067;-52
2024/03/17 08:07:10;;;;;;;14.68;8.20;;;;;;;;;;5048522;28;20536;-54
2024/03/17 08:09:46;;;;;;;12.68;7.32;;;;;;;;;;5032519;28;20116;-55
2024/03/17 08:12:12;;;;;;;14.05;7.63;;;;;;;;;;5027051;28;20033;-57
2024/03/17 08:14:38;;;;;;;12.07;7.07;;;;;;;;;;5028320;28;20022;-57
2024/03/17 08:17:06;;;;;;;11.98;7.00;;;;;;;;;;5028727;28;20537;-51
2024/03/17 08:19:32;;;;;;;11.93;6.93;;;;;;;;;;5028669;28;20033;-55
2024/03/17 08:21:57;;;;;;;11.70;6.80;;;;;;;;;;5028178;28;20030;-56
2024/03/17 08:24:23;;;;;;;11.20;6.50;;;;;;;;;;5028289;28;20033;-51
2024/03/17 08:26:49;;;;;;;11.27;6.60;;;;;;;;;;5028751;28;20128;-54
2024/03/17 08:29:15;;;;;;;12.25;7.30;;;;;;;;;;5027248;28;20052;-52
2024/03/17 08:31:42;;;;;;;11.45;6.72;;;;;;;;;;5028389;28;20021;-51
2024/03/17 08:34:08;;;;;;;11.60;6.75;;;;;;;;;;5032103;28;20017;-55
2024/03/17 08:36:34;;;;;;;11.43;6.70;;;;;;;;;;5047840;28;20024;-55
2024/03/17 08:39:01;;;;;;;11.73;6.82;;;;;;;;;;5048315;28;20624;-52
2024/03/17 08:41:27;;;;;;;11.70;6.80;;;;;;;;;;5048270;28;20021;-51
2024/03/17 08:43:53;;;;;;;11.73;6.85;;;;;;;;;;5047884;28;20471;-50
2024/03/17 08:46:19;;;;;;;12.05;7.10;;;;;;;;;;5048291;28;20025;-52
2024/03/17 08:48:45;;;;;;;12.35;7.57;;;;;;;;;;5047770;28;20029;-47
2024/03/17 08:51:11;;;;;;;12.60;7.32;;;;;;;;;;5048041;28;20223;-52
2024/03/17 08:53:39;;;;;;;12.45;7.28;;;;;;;;;;5047200;28;20021;-52
2024/03/17 08:56:06;;;;;;;12.75;7.43;;;;;;;;;;5047910;28;20375;-47
2024/03/17 08:58:32;;;;;;;13.05;7.60;;;;;;;;;;5047832;28;20028;-50
2024/03/17 09:00:58;;;;;;;13.15;7.80;;;;;;;;;;5047833;28;20036;-49
2024/03/17 09:03:26;;;;;;;13.30;7.80;;;;;;;;;;5046009;28;20036;-49
2024/03/17 09:05:54;;;;;;;13.30;7.80;;;;;;;;;;5047948;28;20098;-48
2024/03/17 09:08:21;;;;;;;13.20;7.80;;;;;;;;;;5048007;28;20495;-47
2024/03/17 09:10:48;;;;;;;12.80;7.47;;;;;;;;;;5047763;28;20021;-49
2024/03/17 09:13:15;;;;;;;12.80;7.47;;;;;;;;;;5047409;28;20040;-47
2024/03/17 09:15:42;;;;;;;12.93;7.55;;;;;;;;;;5047968;28;20477;-47
2024/03/17 09:18:08;;;;;;;13.00;7.50;;;;;;;;;;5049943;28;20032;-47
2024/03/17 09:20:34;;;;;;;15.25;9.98;;;;;;;;;;5051089;28;20475;-52
2024/03/17 09:23:00;;;;;;;13.23;7.70;;;;;;;;;;5032436;28;20074;-52
2024/03/17 09:25:26;;;;;;;13.15;7.75;;;;;;;;;;5051547;28;20496;-47
2024/03/17 09:27:52;;;;;;;13.30;8.02;;;;;;;;;;5050964;28;20471;-47
2024/03/17 09:30:18;;;;;;;13.45;8.20;;;;;;;;;;5051325;28;20017;-51
2024/03/17 09:32:44;;;;;;;13.57;8.68;;;;;;;;;;5050391;28;20017;-52
2024/03/17 09:35:10;;;;;;;13.18;7.70;;;;;;;;;;5050930;28;20052;-51
2024/03/17 09:37:36;;;;;;;13.32;7.82;;;;;;;;;;5051072;28;20516;-51
2024/03/17 09:40:06;;;;;;;13.15;7.65;;;;;;;;;;5051054;28;20033;-51
2024/03/17 09:42:32;;;;;;;13.35;8.00;;;;;;;;;;5049260;28;20021;-51
2024/03/17 09:44:58;;;;;;;13.40;8.00;;;;;;;;;;5050827;28;20025;-51
2024/03/17 09:47:26;;;;;;;13.35;8.27;;;;;;;;;;5050056;28;20040;-55
2024/03/17 09:49:52;;;;;;;13.35;7.95;;;;;;;;;;5050006;28;20068;-49
2024/03/17 09:52:20;;;;;;;13.38;8.10;;;;;;;;;;5050065;28;20082;-52
2024/03/17 09:54:47;;;;;;;13.35;8.10;;;;;;;;;;5049749;28;20025;-51
2024/03/17 09:57:17;;;;;;;13.43;8.15;;;;;;;;;;5050177;28;20056;-52
2024/03/17 09:59:43;;;;;;;13.32;7.90;;;;;;;;;;5050594;28;20379;-54
2024/03/17 10:02:18;;;;;;;13.38;7.90;;;;;;;;;;5050233;28;20029;-54
2024/03/17 10:04:44;;;;;;;13.10;7.60;;;;;;;;;;5050146;28;20113;-54
2024/03/17 10:07:10;;;;;;;13.05;7.60;;;;;;;;;;5032283;28;20063;-51
2024/03/17 10:09:36;;;;;;;13.15;7.70;;;;;;;;;;5050597;28;20044;-53
2024/03/17 10:12:02;;;;;;;13.25;7.82;;;;;;;;;;5050186;28;20443;-56
2024/03/17 10:14:28;;;;;;;13.15;7.78;;;;;;;;;;5032047;28;20040;-54
2024/03/17 10:16:54;;;;;;;13.40;8.00;;;;;;;;;;5050438;28;20119;-55
2024/03/17 10:19:24;;;;;;;13.13;7.70;;;;;;;;;;5050844;28;20083;-52
2024/03/17 10:21:51;;;;;;;13.50;8.40;;;;;;;;;;5050255;28;20032;-51
2024/03/17 10:24:20;;;;;;;13.32;8.00;;;;;;;;;;5049911;28;20025;-53
2024/03/17 10:26:56;;;;;;;13.13;7.70;;;;;;;;;;5050365;28;20073;-52
2024/03/17 10:29:27;;;;;;;13.43;8.10;;;;;;;;;;5049059;28;20025;-56
2024/03/17 10:31:53;;;;;;;13.48;8.20;;;;;;;;;;5050017;28;20502;-56
2024/03/17 10:34:20;;;;;;;13.32;7.90;;;;;;;;;;5048441;28;20070;-52
2024/03/17 10:36:49;;;;;;;13.13;7.72;;;;;;;;;;5048413;28;20024;-56
2024/03/17 10:39:28;;;;;;;13.25;7.78;;;;;;;;;;5048699;28;20017;-51
2024/03/17 10:41:56;;;;;;;13.30;8.00;;;;;;;;;;5048497;28;20032;-53
2024/03/17 10:44:22;;;;;;;13.30;8.10;;;;;;;;;;5030298;28;20242;-54
2024/03/17 10:46:50;;;;;;;13.57;8.50;;;;;;;;;;5048541;28;20028;-53
2024/03/17 10:49:17;;;;;;;13.70;8.70;;;;;;;;;;5049706;28;20086;-53
2024/03/17 10:51:47;;;;;;;13.32;8.10;;;;;;;;;;5049718;28;20474;-52
2024/03/17 10:54:22;;;;;;;13.52;8.40;;;;;;;;;;5049825;28;20395;-55
2024/03/17 10:56:48;;;;;;;13.45;8.23;;;;;;;;;;5050244;28;20036;-52
2024/03/17 10:59:15;;;;;;;13.63;8.70;;;;;;;;;;5050138;28;20037;-53
2024/03/17 11:01:41;;;;;;;13.50;8.48;;;;;;;;;;5049259;28;20386;-49
2024/03/17 11:04:12;;;;;;;13.50;8.30;;;;;;;;;;5049085;28;20506;-51
2024/03/17 11:06:38;;;;;;;13.52;8.35;;;;;;;;;;5049485;28;20032;-52
2024/03/17 11:09:05;;;;;;;13.48;8.30;;;;;;;;;;5049861;28;20096;-49
2024/03/17 11:11:39;;;;;;;13.60;8.70;;;;;;;;;;5049285;28;20027;-52
2024/03/17 11:14:22;;;;;;;13.57;8.57;;;;;;;;;;5048930;28;20048;-52
2024/03/17 11:16:48;;;;;;;13.57;8.60;;;;;;;;;;5048923;28;20021;-51
2024/03/17 11:19:17;;;;;;;13.57;8.65;;;;;;;;;;5049022;28;20021;-53
2024/03/17 11:21:44;;;;;;;13.63;8.80;;;;;;;;;;5047804;28;20079;-54
2024/03/17 11:24:20;;;;;;;13.65;8.90;;;;;;;;;;5048592;28;20029;-48
2024/03/17 11:26:46;;;;;;;13.57;8.60;;;;;;;;;;5031087;28;20386;-53
2024/03/17 11:29:29;;;;;;;13.60;8.63;;;;;;;;;;5048840;28;20021;-53
2024/03/17 11:31:55;;;;;;;13.68;8.95;;;;;;;;;;5048967;28;20036;-50
2024/03/17 11:34:34;;;;;;;13.70;9.00;;;;;;;;;;5052969;28;20045;-55
2024/03/17 11:37:00;;;;;;;13.77;9.13;;;;;;;;;;5052479;28;20045;-49
2024/03/17 11:39:46;;;;;;;13.57;8.63;;;;;;;;;;5054657;28;20024;-56
2024/03/17 11:42:14;;;;;;;13.85;9.30;;;;;;;;;;5049991;28;20043;-53
2024/03/17 11:44:42;;;;;;;13.60;8.85;;;;;;;;;;5049103;28;20131;-52
2024/03/17 11:47:08;;;;;;;13.77;9.15;;;;;;;;;;5030704;28;20041;-54
2024/03/17 11:49:38;;;;;;;13.65;8.85;;;;;;;;;;5048279;28;20082;-51
2024/03/17 11:52:08;;;;;;;13.60;8.73;;;;;;;;;;5048145;28;20021;-52
2024/03/17 11:54:35;;;;;;;13.55;8.45;;;;;;;;;;4696734;28;9999850;-56
2024/03/17 11:57:03;;;;;;;13.57;8.70;;;;;;;;;;5041242;28;20218;-53
2024/03/17 11:59:29;;;;;;;13.52;8.70;;;;;;;;;;5042015;28;20133;-50
2024/03/17 12:01:55;;;;;;;13.57;8.68;;;;;;;;;;5028384;28;20443;-54
2024/03/17 12:04:22;;;;;;;13.60;8.80;;;;;;;;;;5037562;28;20065;-52
2024/03/17 12:06:52;;;;;;;13.57;8.63;;;;;;;;;;5045987;28;20032;-52
2024/03/17 12:09:20;;;;;;;13.60;8.82;;;;;;;;;;5046298;28;20025;-52
2024/03/17 12:11:47;;;;;;;14.32;8.93;;;;;;;;;;5045359;28;20052;-50
2024/03/17 12:14:19;;;;;;;13.65;8.80;;;;;;;;;;5045556;28;20052;-50
2024/03/17 12:17:04;;;;;;;13.52;8.65;;;;;;;;;;5045177;28;20092;-51
2024/03/17 12:19:31;;;;;;;13.60;8.70;;;;;;;;;;5044975;28;20048;-47
2024/03/17 12:21:58;;;;;;;13.57;8.80;;;;;;;;;;5045161;28;20033;-54
2024/03/17 12:24:25;;;;;;;13.63;8.73;;;;;;;;;;5043629;28;20606;-53
2024/03/17 12:27:02;;;;;;;13.63;8.73;;;;;;;;;;5045517;28;20029;-53
2024/03/17 12:29:30;;;;;;;13.60;8.73;;;;;;;;;;5038978;28;20026;-53
2024/03/17 12:31:57;;;;;;;13.60;8.80;;;;;;;;;;5027941;28;20105;-55
2024/03/17 12:34:23;;;;;;;14.10;9.52;;;;;;;;;;5032542;28;20082;-51
2024/03/17 12:36:49;;;;;;;13.52;8.57;;;;;;;;;;5047818;28;20483;-50
2024/03/17 12:39:19;;;;;;;13.68;8.90;;;;;;;;;;5047886;28;20032;-52
2024/03/17 12:41:46;;;;;;;14.27;10.45;;;;;;;;;;5029736;28;20021;-51
2024/03/17 12:44:24;;;;;;;13.60;8.60;;;;;;;;;;5047293;28;20052;-56
2024/03/17 12:46:50;;;;;;;;;;;;;;;;;;5048558;28;20045;-55
2024/03/17 12:49:16;;;;;;;13.73;9.00;;;;;;;;;;5048034;28;19971;-54
2024/03/17 12:51:42;;;;;;;13.68;8.98;;;;;;;;;;5047690;28;20033;-53
2024/03/17 12:54:15;;;;;;;13.73;8.98;;;;;;;;;;5050046;28;20082;-52
2024/03/17 13:02:23;;;;;;;13.70;9.00;;;;;;;;;;5050357;28;20418;-51
2024/03/17 13:05:05;;;;;;;13.25;8.51;;;;;;;;;;4700815;28;10001168;-56
2024/03/17 13:07:31;;;;;;;13.68;9.00;;;;;;;;;;5047897;28;20116;-56
2024/03/17 13:09:57;;;;;;;13.80;9.13;;;;;;;;;;5047948;28;20117;-57
2024/03/17 13:12:23;;;;;;;13.68;8.82;;;;;;;;;;5048986;28;20032;-54
2024/03/17 13:14:49;;;;;;;13.60;8.80;;;;;;;;;;5048262;28;20035;-55
2024/03/17 13:17:17;;;;;;;13.70;8.95;;;;;;;;;;5047418;28;20521;-50
2024/03/17 13:19:46;;;;;;;13.73;9.10;;;;;;;;;;5047387;28;20024;-54
2024/03/17 13:22:12;;;;;;;13.63;8.85;;;;;;;;;;5047384;28;20108;-51
2024/03/17 13:24:38;;;;;;;13.65;8.90;;;;;;;;;;5047692;28;20077;-53
2024/03/17 13:27:06;;;;;;;13.80;9.20;;;;;;;;;;5047279;28;20447;-54
2024/03/17 13:29:38;;;;;;;13.80;9.20;;;;;;;;;;5047068;28;20069;-54
2024/03/17 13:32:04;;;;;;;13.70;9.10;;;;;;;;;;5049210;28;20184;-58
2024/03/17 13:34:31;;;;;;;13.80;9.20;;;;;;;;;;5048970;28;20351;-55
2024/03/17 13:36:57;;;;;;;13.75;9.15;;;;;;;;;;5032822;28;20475;-56
2024/03/17 13:39:24;;;;;;;13.73;9.00;;;;;;;;;;5050709;28;20490;-54
2024/03/17 13:41:52;;;;;;;16.77;14.75;;;;;;;;;;5049282;28;20170;-56
2024/03/17 13:44:18;;;;;;;13.93;9.65;;;;;;;;;;5048099;28;20676;-51
2024/03/17 13:46:45;;;;;;;13.88;9.48;;;;;;;;;;5030247;28;20588;-53
2024/03/17 13:49:11;;;;;;;13.75;9.15;;;;;;;;;;5029533;28;20541;-55
2024/03/17 13:51:37;;;;;;;13.68;9.00;;;;;;;;;;5047484;28;20098;-54
2024/03/17 13:54:03;;;;;;;13.70;9.00;;;;;;;;;;5046456;28;20033;-55
2024/03/17 13:56:29;;;;;;;13.80;9.32;;;;;;;;;;5047441;28;20454;-54
2024/03/17 13:58:55;;;;;;;13.80;9.18;;;;;;;;;;5047376;28;20603;-53
2024/03/17 14:01:21;;;;;;;13.73;9.10;;;;;;;;;;5029276;28;20036;-51
2024/03/17 14:03:47;;;;;;;13.68;9.00;;;;;;;;;;5036602;28;20036;-55
2024/03/17 14:06:13;;;;;;;13.65;8.90;;;;;;;;;;5040068;28;20033;-57
2024/03/17 14:08:39;;;;;;;13.60;8.85;;;;;;;;;;5048041;28;20375;-56
2024/03/17 14:11:05;;;;;;;13.68;9.07;;;;;;;;;;5046904;28;20036;-57
2024/03/17 14:13:32;;;;;;;20.33;10.02;;;;;;;;;;5047841;28;20024;-56
2024/03/17 14:15:58;;;;;;;13.73;9.13;;;;;;;;;;5050262;28;20100;-53
2024/03/17 14:18:24;;;;;;;13.63;8.90;;;;;;;;;;5050479;28;20027;-54
2024/03/17 14:20:50;;;;;;;13.60;8.70;;;;;;;;;;5050424;28;20060;-51
2024/03/17 14:23:17;;;;;;;14.30;10.38;;;;;;;;;;5049596;28;20025;-55
2024/03/17 14:25:43;;;;;;;13.68;9.05;;;;;;;;;;5050339;28;20471;-52
2024/03/17 14:28:09;;;;;;;13.55;8.60;;;;;;;;;;5050116;28;20045;-53
2024/03/17 14:30:35;;;;;;;13.68;9.10;;;;;;;;;;5049982;28;20025;-53
2024/03/17 14:33:04;;;;;;;13.68;9.00;;;;;;;;;;5051810;28;20021;-51
2024/03/17 14:35:30;;;;;;;;;;;;;;;;;;5039524;28;20673;-55
2024/03/17 14:37:58;;;;;;;13.68;8.90;;;;;;;;;;5055230;28;19904;-57
2024/03/17 14:40:24;;;;;;;13.70;8.80;;;;;;;;;;5047809;28;20104;-51